Terminal Aerodrome Forecast
Issued by NWS Tuscon, AZ

Home | Current Version | Previous Version | Text Only | Print | Product List | Glossary On
Versions: 1 2 3 4 5 6 7 8 9 10 11 12 13
000
FTUS45 KTWC 050520
TAFTUS
TAF
KTUS 050520Z 0506/0606 22008KT P6SM SCT250
     FM050800 14007KT P6SM SKC
     FM051500 17013G20KT P6SM FEW250
     FM051900 20020G29KT P6SM FEW120 SCT250
     FM060300 26010KT P6SM SCT250=

USA.gov is the U.S. government's official web portal to all federal, state and local government web resources and services.